sensor_id;sensor_type;location;lat;lon;timestamp;temperature;humidity
42833;DHT22;64089;51.478;5.692;2023-05-10T00:00:39;13.20;99.90
42833;DHT22;64089;51.478;5.692;2023-05-10T00:03:04;13.20;99.90
42833;DHT22;64089;51.478;5.692;2023-05-10T00:05:31;13.20;99.90
42833;DHT22;64089;51.478;5.692;2023-05-10T00:07:57;13.20;99.90
42833;DHT22;64089;51.478;5.692;2023-05-10T00:10:22;13.20;99.90
42833;DHT22;64089;51.478;5.692;2023-05-10T00:12:48;13.20;99.90
42833;DHT22;64089;51.478;5.692;2023-05-10T00:15:14;13.20;99.90
42833;DHT22;64089;51.478;5.692;2023-05-10T00:17:39;13.20;99.90
42833;DHT22;64089;51.478;5.692;2023-05-10T00:20:06;13.20;99.90
42833;DHT22;64089;51.478;5.692;2023-05-10T00:22:32;13.20;99.90
42833;DHT22;64089;51.478;5.692;2023-05-10T00:24:58;13.20;99.90
42833;DHT22;64089;51.478;5.692;2023-05-10T00:27:23;13.20;99.90
42833;DHT22;64089;51.478;5.692;2023-05-10T00:29:49;13.20;99.90
42833;DHT22;64089;51.478;5.692;2023-05-10T00:32:18;13.20;99.90
42833;DHT22;64089;51.478;5.692;2023-05-10T00:34:43;13.20;99.90
42833;DHT22;64089;51.478;5.692;2023-05-10T00:37:09;13.20;99.90
42833;DHT22;64089;51.478;5.692;2023-05-10T00:39:35;13.10;99.90
42833;DHT22;64089;51.478;5.692;2023-05-10T00:42:00;13.20;99.90
42833;DHT22;64089;51.478;5.692;2023-05-10T00:44:26;13.10;99.90
42833;DHT22;64089;51.478;5.692;2023-05-10T00:46:52;13.10;99.90
42833;DHT22;64089;51.478;5.692;2023-05-10T00:49:18;13.10;99.90
42833;DHT22;64089;51.478;5.692;2023-05-10T00:51:44;13.10;99.90
42833;DHT22;64089;51.478;5.692;2023-05-10T00:54:14;13.10;99.90
42833;DHT22;64089;51.478;5.692;2023-05-10T00:56:41;13.00;99.90
42833;DHT22;64089;51.478;5.692;2023-05-10T00:59:10;13.10;99.90
42833;DHT22;64089;51.478;5.692;2023-05-10T01:01:36;13.00;99.90
42833;DHT22;64089;51.478;5.692;2023-05-10T01:04:02;13.00;99.90
42833;DHT22;64089;51.478;5.692;2023-05-10T01:06:28;13.00;99.90
42833;DHT22;64089;51.478;5.692;2023-05-10T01:08:54;13.00;99.90
42833;DHT22;64089;51.478;5.692;2023-05-10T01:11:19;13.00;99.90
42833;DHT22;64089;51.478;5.692;2023-05-10T01:13:50;13.10;99.90
42833;DHT22;64089;51.478;5.692;2023-05-10T01:16:17;13.10;99.90
42833;DHT22;64089;51.478;5.692;2023-05-10T01:18:44;13.10;99.90
42833;DHT22;64089;51.478;5.692;2023-05-10T01:34:35;13.00;99.90
42833;DHT22;64089;51.478;5.692;2023-05-10T01:37:10;13.00;99.90
42833;DHT22;64089;51.478;5.692;2023-05-10T01:39:48;13.00;99.90
42833;DHT22;64089;51.478;5.692;2023-05-10T01:42:20;13.00;99.90
42833;DHT22;64089;51.478;5.692;2023-05-10T01:45:07;13.10;99.90
42833;DHT22;64089;51.478;5.692;2023-05-10T01:47:40;13.10;99.90
42833;DHT22;64089;51.478;5.692;2023-05-10T01:50:14;13.10;99.90
42833;DHT22;64089;51.478;5.692;2023-05-10T01:52:42;13.10;99.90
42833;DHT22;64089;51.478;5.692;2023-05-10T01:55:14;13.10;99.90
42833;DHT22;64089;51.478;5.692;2023-05-10T01:57:44;13.20;99.90
42833;DHT22;64089;51.478;5.692;2023-05-10T02:00:12;13.20;99.90
42833;DHT22;64089;51.478;5.692;2023-05-10T02:02:47;13.20;99.90
42833;DHT22;64089;51.478;5.692;2023-05-10T02:05:18;13.30;99.90
42833;DHT22;64089;51.478;5.692;2023-05-10T02:07:44;13.30;99.90
42833;DHT22;64089;51.478;5.692;2023-05-10T02:10:11;13.30;99.90
42833;DHT22;64089;51.478;5.692;2023-05-10T02:12:43;13.30;99.90
42833;DHT22;64089;51.478;5.692;2023-05-10T02:15:11;13.30;99.90
42833;DHT22;64089;51.478;5.692;2023-05-10T02:17:37;13.30;99.90
42833;DHT22;64089;51.478;5.692;2023-05-10T02:20:05;13.40;99.90
42833;DHT22;64089;51.478;5.692;2023-05-10T02:22:32;13.40;99.90
42833;DHT22;64089;51.478;5.692;2023-05-10T02:24:58;13.30;99.90
42833;DHT22;64089;51.478;5.692;2023-05-10T02:27:25;13.40;99.90
42833;DHT22;64089;51.478;5.692;2023-05-10T02:29:53;13.40;99.90
42833;DHT22;64089;51.478;5.692;2023-05-10T02:32:21;13.40;99.90
42833;DHT22;64089;51.478;5.692;2023-05-10T02:34:48;13.40;99.90
42833;DHT22;64089;51.478;5.692;2023-05-10T02:37:19;13.40;99.90
42833;DHT22;64089;51.478;5.692;2023-05-10T02:39:54;13.40;99.90
42833;DHT22;64089;51.478;5.692;2023-05-10T02:42:27;13.40;99.90
42833;DHT22;64089;51.478;5.692;2023-05-10T02:45:00;13.40;99.90
42833;DHT22;64089;51.478;5.692;2023-05-10T02:47:27;13.40;99.90
42833;DHT22;64089;51.478;5.692;2023-05-10T02:49:53;13.30;99.90
42833;DHT22;64089;51.478;5.692;2023-05-10T02:52:24;13.30;99.90
42833;DHT22;64089;51.478;5.692;2023-05-10T02:54:52;13.30;99.90
42833;DHT22;64089;51.478;5.692;2023-05-10T02:57:25;13.40;99.90
42833;DHT22;64089;51.478;5.692;2023-05-10T02:59:51;13.40;99.90
42833;DHT22;64089;51.478;5.692;2023-05-10T03:02:17;13.40;99.90
42833;DHT22;64089;51.478;5.692;2023-05-10T03:04:42;13.40;99.90
42833;DHT22;64089;51.478;5.692;2023-05-10T03:07:08;13.40;99.90
42833;DHT22;64089;51.478;5.692;2023-05-10T03:09:34;13.40;99.90
42833;DHT22;64089;51.478;5.692;2023-05-10T03:21:01;13.40;99.90
42833;DHT22;64089;51.478;5.692;2023-05-10T03:23:46;13.30;99.90
42833;DHT22;64089;51.478;5.692;2023-05-10T03:26:24;13.30;99.90
42833;DHT22;64089;51.478;5.692;2023-05-10T03:28:51;13.30;99.90
42833;DHT22;64089;51.478;5.692;2023-05-10T03:31:18;13.30;99.90
42833;DHT22;64089;51.478;5.692;2023-05-10T03:33:47;13.30;99.90
42833;DHT22;64089;51.478;5.692;2023-05-10T03:36:13;13.40;99.90
42833;DHT22;64089;51.478;5.692;2023-05-10T03:38:39;13.40;99.90
42833;DHT22;64089;51.478;5.692;2023-05-10T03:41:05;13.40;99.90
42833;DHT22;64089;51.478;5.692;2023-05-10T03:43:30;13.30;99.90
42833;DHT22;64089;51.478;5.692;2023-05-10T03:45:56;13.40;99.90
42833;DHT22;64089;51.478;5.692;2023-05-10T03:48:21;13.40;99.90
42833;DHT22;64089;51.478;5.692;2023-05-10T03:50:47;13.40;99.90
42833;DHT22;64089;51.478;5.692;2023-05-10T03:53:14;13.40;99.90
42833;DHT22;64089;51.478;5.692;2023-05-10T03:55:41;13.40;99.90
42833;DHT22;64089;51.478;5.692;2023-05-10T03:58:06;13.40;99.90
42833;DHT22;64089;51.478;5.692;2023-05-10T04:00:35;13.40;99.90
42833;DHT22;64089;51.478;5.692;2023-05-10T04:03:01;13.40;99.90
42833;DHT22;64089;51.478;5.692;2023-05-10T04:05:26;13.40;99.90
42833;DHT22;64089;51.478;5.692;2023-05-10T04:07:52;13.40;99.90
42833;DHT22;64089;51.478;5.692;2023-05-10T04:10:18;13.40;99.90
42833;DHT22;64089;51.478;5.692;2023-05-10T04:12:43;13.40;99.90
42833;DHT22;64089;51.478;5.692;2023-05-10T04:15:09;13.40;99.90
42833;DHT22;64089;51.478;5.692;2023-05-10T04:17:35;13.40;99.90
42833;DHT22;64089;51.478;5.692;2023-05-10T04:20:00;13.40;99.90
42833;DHT22;64089;51.478;5.692;2023-05-10T04:22:26;13.40;99.90
42833;DHT22;64089;51.478;5.692;2023-05-10T04:24:53;13.40;99.90
42833;DHT22;64089;51.478;5.692;2023-05-10T04:27:18;13.40;99.90
42833;DHT22;64089;51.478;5.692;2023-05-10T04:29:44;13.30;99.90
42833;DHT22;64089;51.478;5.692;2023-05-10T04:32:09;13.30;99.90
42833;DHT22;64089;51.478;5.692;2023-05-10T04:34:36;13.40;99.90
42833;DHT22;64089;51.478;5.692;2023-05-10T04:37:02;13.30;99.90
42833;DHT22;64089;51.478;5.692;2023-05-10T04:39:27;13.40;99.90
42833;DHT22;64089;51.478;5.692;2023-05-10T04:41:53;13.30;99.90
42833;DHT22;64089;51.478;5.692;2023-05-10T04:44:18;13.30;99.90
42833;DHT22;64089;51.478;5.692;2023-05-10T04:46:44;13.30;99.90
42833;DHT22;64089;51.478;5.692;2023-05-10T04:49:09;13.40;99.90
42833;DHT22;64089;51.478;5.692;2023-05-10T04:51:35;13.40;99.90
42833;DHT22;64089;51.478;5.692;2023-05-10T04:54:00;13.40;99.90
42833;DHT22;64089;51.478;5.692;2023-05-10T04:56:26;13.40;99.90
42833;DHT22;64089;51.478;5.692;2023-05-10T04:58:51;13.40;99.90
42833;DHT22;64089;51.478;5.692;2023-05-10T05:01:17;13.30;99.90
42833;DHT22;64089;51.478;5.692;2023-05-10T05:03:43;13.30;99.90
42833;DHT22;64089;51.478;5.692;2023-05-10T05:06:08;13.30;99.90
42833;DHT22;64089;51.478;5.692;2023-05-10T05:08:34;13.30;99.90
42833;DHT22;64089;51.478;5.692;2023-05-10T05:10:59;13.30;99.90
42833;DHT22;64089;51.478;5.692;2023-05-10T05:13:25;13.30;99.90
42833;DHT22;64089;51.478;5.692;2023-05-10T05:15:50;13.30;99.90
42833;DHT22;64089;51.478;5.692;2023-05-10T05:18:16;13.20;99.90
42833;DHT22;64089;51.478;5.692;2023-05-10T05:20:42;13.30;99.90
42833;DHT22;64089;51.478;5.692;2023-05-10T05:23:09;13.40;99.90
42833;DHT22;64089;51.478;5.692;2023-05-10T05:25:34;13.30;99.90
42833;DHT22;64089;51.478;5.692;2023-05-10T05:28:00;13.30;99.90
42833;DHT22;64089;51.478;5.692;2023-05-10T05:30:27;13.40;99.90
42833;DHT22;64089;51.478;5.692;2023-05-10T05:32:52;13.40;99.90
42833;DHT22;64089;51.478;5.692;2023-05-10T05:35:18;13.30;99.90
42833;DHT22;64089;51.478;5.692;2023-05-10T05:37:44;13.30;99.90
42833;DHT22;64089;51.478;5.692;2023-05-10T05:40:12;13.30;99.90
42833;DHT22;64089;51.478;5.692;2023-05-10T05:42:38;13.30;99.90
42833;DHT22;64089;51.478;5.692;2023-05-10T05:45:04;13.30;99.90
42833;DHT22;64089;51.478;5.692;2023-05-10T05:47:30;13.50;99.90
42833;DHT22;64089;51.478;5.692;2023-05-10T05:49:56;13.60;99.90
42833;DHT22;64089;51.478;5.692;2023-05-10T05:52:21;13.60;99.90
42833;DHT22;64089;51.478;5.692;2023-05-10T05:54:47;13.70;99.90
42833;DHT22;64089;51.478;5.692;2023-05-10T05:57:12;13.60;99.90
42833;DHT22;64089;51.478;5.692;2023-05-10T05:59:38;13.60;99.90
42833;DHT22;64089;51.478;5.692;2023-05-10T06:02:08;13.60;99.90
42833;DHT22;64089;51.478;5.692;2023-05-10T06:04:33;13.70;99.90
42833;DHT22;64089;51.478;5.692;2023-05-10T06:06:59;13.70;99.90
42833;DHT22;64089;51.478;5.692;2023-05-10T06:09:24;13.80;99.90
42833;DHT22;64089;51.478;5.692;2023-05-10T06:11:50;13.80;99.90
42833;DHT22;64089;51.478;5.692;2023-05-10T06:14:16;13.90;99.90
42833;DHT22;64089;51.478;5.692;2023-05-10T06:16:41;13.90;99.90
42833;DHT22;64089;51.478;5.692;2023-05-10T06:19:07;14.00;99.90
42833;DHT22;64089;51.478;5.692;2023-05-10T06:21:32;14.10;99.90
42833;DHT22;64089;51.478;5.692;2023-05-10T06:23:58;14.00;99.90
42833;DHT22;64089;51.478;5.692;2023-05-10T06:26:24;14.00;99.90
42833;DHT22;64089;51.478;5.692;2023-05-10T06:28:50;13.90;99.90
42833;DHT22;64089;51.478;5.692;2023-05-10T06:31:16;13.80;99.90
42833;DHT22;64089;51.478;5.692;2023-05-10T06:33:41;13.80;99.90
42833;DHT22;64089;51.478;5.692;2023-05-10T06:36:07;13.80;99.90
42833;DHT22;64089;51.478;5.692;2023-05-10T06:38:33;13.80;99.90
42833;DHT22;64089;51.478;5.692;2023-05-10T06:40:58;13.80;99.90
42833;DHT22;64089;51.478;5.692;2023-05-10T06:43:24;13.80;99.90
42833;DHT22;64089;51.478;5.692;2023-05-10T06:45:51;13.90;99.90
42833;DHT22;64089;51.478;5.692;2023-05-10T06:48:17;13.90;99.90
42833;DHT22;64089;51.478;5.692;2023-05-10T06:50:42;13.90;99.90
42833;DHT22;64089;51.478;5.692;2023-05-10T06:53:09;13.90;99.90
42833;DHT22;64089;51.478;5.692;2023-05-10T06:55:34;13.90;99.90
42833;DHT22;64089;51.478;5.692;2023-05-10T06:58:00;13.80;99.90
42833;DHT22;64089;51.478;5.692;2023-05-10T07:00:26;13.80;99.90
42833;DHT22;64089;51.478;5.692;2023-05-10T07:02:52;13.80;99.90
42833;DHT22;64089;51.478;5.692;2023-05-10T07:05:18;13.90;99.90
42833;DHT22;64089;51.478;5.692;2023-05-10T07:07:43;13.90;99.90
42833;DHT22;64089;51.478;5.692;2023-05-10T07:10:09;13.90;99.90
42833;DHT22;64089;51.478;5.692;2023-05-10T07:12:35;13.90;99.90
42833;DHT22;64089;51.478;5.692;2023-05-10T07:15:00;13.90;99.90
42833;DHT22;64089;51.478;5.692;2023-05-10T07:17:26;13.90;99.90
42833;DHT22;64089;51.478;5.692;2023-05-10T07:19:51;13.90;99.90
42833;DHT22;64089;51.478;5.692;2023-05-10T07:22:17;13.90;99.90
42833;DHT22;64089;51.478;5.692;2023-05-10T07:24:43;14.00;99.90
42833;DHT22;64089;51.478;5.692;2023-05-10T07:27:09;14.00;99.90
42833;DHT22;64089;51.478;5.692;2023-05-10T07:29:35;14.00;99.90
42833;DHT22;64089;51.478;5.692;2023-05-10T07:32:01;14.00;99.90
42833;DHT22;64089;51.478;5.692;2023-05-10T07:34:27;14.00;99.90
42833;DHT22;64089;51.478;5.692;2023-05-10T07:36:53;13.90;99.90
42833;DHT22;64089;51.478;5.692;2023-05-10T07:39:19;14.00;99.90
42833;DHT22;64089;51.478;5.692;2023-05-10T07:41:45;14.10;99.90
42833;DHT22;64089;51.478;5.692;2023-05-10T07:44:11;14.20;99.90
42833;DHT22;64089;51.478;5.692;2023-05-10T07:46:37;14.20;99.90
42833;DHT22;64089;51.478;5.692;2023-05-10T07:49:02;14.20;99.90
42833;DHT22;64089;51.478;5.692;2023-05-10T07:51:28;14.30;99.90
42833;DHT22;64089;51.478;5.692;2023-05-10T07:53:54;14.30;99.90
42833;DHT22;64089;51.478;5.692;2023-05-10T07:56:31;14.30;99.90
42833;DHT22;64089;51.478;5.692;2023-05-10T07:59:00;14.20;99.90
42833;DHT22;64089;51.478;5.692;2023-05-10T08:01:26;14.10;99.90
42833;DHT22;64089;51.478;5.692;2023-05-10T08:03:55;14.10;99.90
42833;DHT22;64089;51.478;5.692;2023-05-10T08:06:23;14.00;99.90
42833;DHT22;64089;51.478;5.692;2023-05-10T08:08:54;14.00;99.90
42833;DHT22;64089;51.478;5.692;2023-05-10T08:11:20;14.10;99.90
42833;DHT22;64089;51.478;5.692;2023-05-10T08:13:47;14.20;99.90
42833;DHT22;64089;51.478;5.692;2023-05-10T08:16:13;14.20;99.90
42833;DHT22;64089;51.478;5.692;2023-05-10T08:18:39;14.20;99.90
42833;DHT22;64089;51.478;5.692;2023-05-10T08:21:06;14.10;99.90
42833;DHT22;64089;51.478;5.692;2023-05-10T08:23:32;14.00;99.90
42833;DHT22;64089;51.478;5.692;2023-05-10T08:25:58;14.10;99.90
42833;DHT22;64089;51.478;5.692;2023-05-10T08:28:24;14.10;99.90
42833;DHT22;64089;51.478;5.692;2023-05-10T08:30:49;14.20;99.90
42833;DHT22;64089;51.478;5.692;2023-05-10T08:33:18;14.20;99.90
42833;DHT22;64089;51.478;5.692;2023-05-10T08:35:44;14.10;99.90
42833;DHT22;64089;51.478;5.692;2023-05-10T08:38:10;14.10;99.90
42833;DHT22;64089;51.478;5.692;2023-05-10T08:40:37;14.10;99.90
42833;DHT22;64089;51.478;5.692;2023-05-10T08:43:07;13.90;99.90
42833;DHT22;64089;51.478;5.692;2023-05-10T08:45:36;13.90;99.90
42833;DHT22;64089;51.478;5.692;2023-05-10T08:48:05;13.80;99.90
42833;DHT22;64089;51.478;5.692;2023-05-10T08:50:31;13.80;99.90
42833;DHT22;64089;51.478;5.692;2023-05-10T08:53:00;13.90;99.90
42833;DHT22;64089;51.478;5.692;2023-05-10T08:55:26;13.90;99.90
42833;DHT22;64089;51.478;5.692;2023-05-10T08:57:51;13.90;99.90
42833;DHT22;64089;51.478;5.692;2023-05-10T09:00:18;13.90;99.90
42833;DHT22;64089;51.478;5.692;2023-05-10T09:02:44;14.10;99.90
42833;DHT22;64089;51.478;5.692;2023-05-10T09:05:12;14.10;99.90
42833;DHT22;64089;51.478;5.692;2023-05-10T09:07:37;14.10;99.90
42833;DHT22;64089;51.478;5.692;2023-05-10T09:10:04;14.10;99.90
42833;DHT22;64089;51.478;5.692;2023-05-10T09:12:30;14.10;99.90
42833;DHT22;64089;51.478;5.692;2023-05-10T09:14:58;14.10;99.90
42833;DHT22;64089;51.478;5.692;2023-05-10T09:17:25;14.10;99.90
42833;DHT22;64089;51.478;5.692;2023-05-10T09:20:02;14.20;99.90
42833;DHT22;64089;51.478;5.692;2023-05-10T09:22:30;14.30;99.90
42833;DHT22;64089;51.478;5.692;2023-05-10T09:25:10;14.50;99.90
42833;DHT22;64089;51.478;5.692;2023-05-10T09:27:37;14.50;99.90
42833;DHT22;64089;51.478;5.692;2023-05-10T09:30:04;14.70;99.90
42833;DHT22;64089;51.478;5.692;2023-05-10T09:32:43;14.90;99.90
42833;DHT22;64089;51.478;5.692;2023-05-10T09:35:24;15.00;99.90
42833;DHT22;64089;51.478;5.692;2023-05-10T09:37:52;15.20;99.90
42833;DHT22;64089;51.478;5.692;2023-05-10T09:40:26;15.30;99.90
42833;DHT22;64089;51.478;5.692;2023-05-10T09:45:17;15.70;99.90
42833;DHT22;64089;51.478;5.692;2023-05-10T09:47:43;15.90;99.90
42833;DHT22;64089;51.478;5.692;2023-05-10T09:50:09;16.00;99.90
42833;DHT22;64089;51.478;5.692;2023-05-10T09:52:48;16.10;99.90
42833;DHT22;64089;51.478;5.692;2023-05-10T09:55:14;16.30;99.90
42833;DHT22;64089;51.478;5.692;2023-05-10T09:57:43;16.50;99.90
42833;DHT22;64089;51.478;5.692;2023-05-10T10:00:09;16.30;99.90
42833;DHT22;64089;51.478;5.692;2023-05-10T10:02:35;16.30;99.90
42833;DHT22;64089;51.478;5.692;2023-05-10T10:05:02;16.30;99.90
42833;DHT22;64089;51.478;5.692;2023-05-10T10:07:29;16.20;99.90
42833;DHT22;64089;51.478;5.692;2023-05-10T10:09:55;16.20;99.90
42833;DHT22;64089;51.478;5.692;2023-05-10T10:12:20;16.10;99.90
42833;DHT22;64089;51.478;5.692;2023-05-10T10:14:49;16.30;99.90
42833;DHT22;64089;51.478;5.692;2023-05-10T10:17:16;16.70;99.90
42833;DHT22;64089;51.478;5.692;2023-05-10T10:19:42;17.10;99.90
42833;DHT22;64089;51.478;5.692;2023-05-10T10:22:08;17.40;99.90
42833;DHT22;64089;51.478;5.692;2023-05-10T10:24:42;17.80;99.90
42833;DHT22;64089;51.478;5.692;2023-05-10T10:27:29;18.00;99.90
42833;DHT22;64089;51.478;5.692;2023-05-10T10:35:34;18.40;99.90
42833;DHT22;64089;51.478;5.692;2023-05-10T10:38:00;18.20;99.90
42833;DHT22;64089;51.478;5.692;2023-05-10T10:40:33;17.90;99.90
42833;DHT22;64089;51.478;5.692;2023-05-10T10:43:29;17.20;99.90
42833;DHT22;64089;51.478;5.692;2023-05-10T10:46:33;17.00;99.90
42833;DHT22;64089;51.478;5.692;2023-05-10T10:49:09;16.80;99.90
42833;DHT22;64089;51.478;5.692;2023-05-10T10:51:39;16.60;99.90
42833;DHT22;64089;51.478;5.692;2023-05-10T10:54:11;16.60;99.90
42833;DHT22;64089;51.478;5.692;2023-05-10T10:56:37;16.90;99.90
42833;DHT22;64089;51.478;5.692;2023-05-10T10:59:02;17.20;99.90
42833;DHT22;64089;51.478;5.692;2023-05-10T11:01:33;17.50;99.90
42833;DHT22;64089;51.478;5.692;2023-05-10T11:06:33;17.90;99.90
42833;DHT22;64089;51.478;5.692;2023-05-10T11:09:04;18.20;99.90
42833;DHT22;64089;51.478;5.692;2023-05-10T11:11:31;18.50;99.90
42833;DHT22;64089;51.478;5.692;2023-05-10T11:14:06;18.60;99.90
42833;DHT22;64089;51.478;5.692;2023-05-10T11:16:50;19.10;99.90
42833;DHT22;64089;51.478;5.692;2023-05-10T11:19:17;19.50;99.90
42833;DHT22;64089;51.478;5.692;2023-05-10T11:24:30;18.70;99.90
42833;DHT22;64089;51.478;5.692;2023-05-10T11:26:56;18.50;99.90
42833;DHT22;64089;51.478;5.692;2023-05-10T11:29:22;18.40;99.90
42833;DHT22;64089;51.478;5.692;2023-05-10T11:31:49;18.60;99.90
42833;DHT22;64089;51.478;5.692;2023-05-10T11:34:25;18.50;99.90
42833;DHT22;64089;51.478;5.692;2023-05-10T11:36:53;17.90;99.90
42833;DHT22;64089;51.478;5.692;2023-05-10T11:39:29;17.60;99.90
42833;DHT22;64089;51.478;5.692;2023-05-10T11:41:55;17.40;99.90
42833;DHT22;64089;51.478;5.692;2023-05-10T11:44:21;17.30;99.90
42833;DHT22;64089;51.478;5.692;2023-05-10T11:46:46;17.30;99.90
42833;DHT22;64089;51.478;5.692;2023-05-10T11:49:12;17.30;99.90
42833;DHT22;64089;51.478;5.692;2023-05-10T11:51:38;17.00;99.90
42833;DHT22;64089;51.478;5.692;2023-05-10T11:54:10;17.00;99.90
42833;DHT22;64089;51.478;5.692;2023-05-10T11:56:37;16.80;99.90
42833;DHT22;64089;51.478;5.692;2023-05-10T11:59:03;17.10;99.90
42833;DHT22;64089;51.478;5.692;2023-05-10T12:01:29;17.30;99.90
42833;DHT22;64089;51.478;5.692;2023-05-10T12:03:57;17.80;99.90
42833;DHT22;64089;51.478;5.692;2023-05-10T12:06:31;18.50;99.90
42833;DHT22;64089;51.478;5.692;2023-05-10T12:08:58;18.80;99.90
42833;DHT22;64089;51.478;5.692;2023-05-10T12:11:28;18.90;99.90
42833;DHT22;64089;51.478;5.692;2023-05-10T12:13:55;18.70;99.90
42833;DHT22;64089;51.478;5.692;2023-05-10T12:16:23;18.90;99.90
42833;DHT22;64089;51.478;5.692;2023-05-10T12:18:50;18.80;99.90
42833;DHT22;64089;51.478;5.692;2023-05-10T12:21:21;18.70;99.90
42833;DHT22;64089;51.478;5.692;2023-05-10T12:23:49;18.10;99.90
42833;DHT22;64089;51.478;5.692;2023-05-10T12:26:21;17.80;99.90
42833;DHT22;64089;51.478;5.692;2023-05-10T12:28:47;17.50;99.90
42833;DHT22;64089;51.478;5.692;2023-05-10T12:31:13;17.30;99.90
42833;DHT22;64089;51.478;5.692;2023-05-10T12:33:47;16.70;99.90
42833;DHT22;64089;51.478;5.692;2023-05-10T12:36:16;16.20;99.90
42833;DHT22;64089;51.478;5.692;2023-05-10T12:38:43;15.80;99.90
42833;DHT22;64089;51.478;5.692;2023-05-10T12:41:11;15.50;99.90
42833;DHT22;64089;51.478;5.692;2023-05-10T12:43:37;15.30;99.90
42833;DHT22;64089;51.478;5.692;2023-05-10T12:46:09;15.10;99.90
42833;DHT22;64089;51.478;5.692;2023-05-10T12:48:36;15.00;99.90
42833;DHT22;64089;51.478;5.692;2023-05-10T12:51:03;15.00;99.90
42833;DHT22;64089;51.478;5.692;2023-05-10T12:53:29;15.10;99.90
42833;DHT22;64089;51.478;5.692;2023-05-10T12:55:55;15.10;99.90
42833;DHT22;64089;51.478;5.692;2023-05-10T12:58:21;15.10;99.90
42833;DHT22;64089;51.478;5.692;2023-05-10T13:00:47;15.10;99.90
42833;DHT22;64089;51.478;5.692;2023-05-10T13:03:12;15.00;99.90
42833;DHT22;64089;51.478;5.692;2023-05-10T13:05:38;15.10;99.90
42833;DHT22;64089;51.478;5.692;2023-05-10T13:08:04;15.20;99.90
42833;DHT22;64089;51.478;5.692;2023-05-10T13:10:30;15.40;99.90
42833;DHT22;64089;51.478;5.692;2023-05-10T13:12:56;15.50;99.90
42833;DHT22;64089;51.478;5.692;2023-05-10T13:15:22;15.60;99.90
42833;DHT22;64089;51.478;5.692;2023-05-10T13:17:48;15.60;99.90
42833;DHT22;64089;51.478;5.692;2023-05-10T13:20:14;15.80;99.90
42833;DHT22;64089;51.478;5.692;2023-05-10T13:22:43;16.10;99.90
42833;DHT22;64089;51.478;5.692;2023-05-10T13:25:09;16.40;99.90
42833;DHT22;64089;51.478;5.692;2023-05-10T13:27:35;16.60;99.90
42833;DHT22;64089;51.478;5.692;2023-05-10T13:30:02;17.00;99.90
42833;DHT22;64089;51.478;5.692;2023-05-10T13:32:28;17.40;99.90
42833;DHT22;64089;51.478;5.692;2023-05-10T13:34:55;17.60;99.90
42833;DHT22;64089;51.478;5.692;2023-05-10T13:37:20;17.30;99.90
42833;DHT22;64089;51.478;5.692;2023-05-10T13:39:46;17.30;99.90
42833;DHT22;64089;51.478;5.692;2023-05-10T13:42:12;17.00;99.90
42833;DHT22;64089;51.478;5.692;2023-05-10T13:44:38;16.70;99.90
42833;DHT22;64089;51.478;5.692;2023-05-10T13:47:04;16.40;99.90
42833;DHT22;64089;51.478;5.692;2023-05-10T13:49:30;16.30;99.90
42833;DHT22;64089;51.478;5.692;2023-05-10T13:51:55;16.20;99.90
42833;DHT22;64089;51.478;5.692;2023-05-10T13:54:22;15.90;99.90
42833;DHT22;64089;51.478;5.692;2023-05-10T13:56:48;15.60;99.90
42833;DHT22;64089;51.478;5.692;2023-05-10T13:59:14;15.40;99.90
42833;DHT22;64089;51.478;5.692;2023-05-10T14:01:43;15.10;99.90
42833;DHT22;64089;51.478;5.692;2023-05-10T14:04:08;15.00;99.90
42833;DHT22;64089;51.478;5.692;2023-05-10T14:06:36;15.10;99.90
42833;DHT22;64089;51.478;5.692;2023-05-10T14:09:02;15.30;99.90
42833;DHT22;64089;51.478;5.692;2023-05-10T14:11:28;15.50;99.90
42833;DHT22;64089;51.478;5.692;2023-05-10T14:13:54;15.60;99.90
42833;DHT22;64089;51.478;5.692;2023-05-10T14:16:19;15.60;99.90
42833;DHT22;64089;51.478;5.692;2023-05-10T14:18:45;15.40;99.90
42833;DHT22;64089;51.478;5.692;2023-05-10T14:21:11;15.30;99.90
42833;DHT22;64089;51.478;5.692;2023-05-10T14:23:37;15.30;99.90
42833;DHT22;64089;51.478;5.692;2023-05-10T14:26:03;15.10;99.90
42833;DHT22;64089;51.478;5.692;2023-05-10T14:28:28;15.10;99.90
42833;DHT22;64089;51.478;5.692;2023-05-10T14:30:54;15.10;99.90
42833;DHT22;64089;51.478;5.692;2023-05-10T14:33:20;15.00;99.90
42833;DHT22;64089;51.478;5.692;2023-05-10T14:35:46;15.00;99.90
42833;DHT22;64089;51.478;5.692;2023-05-10T14:38:12;14.90;99.90
42833;DHT22;64089;51.478;5.692;2023-05-10T14:40:37;14.80;99.90
42833;DHT22;64089;51.478;5.692;2023-05-10T14:43:03;14.60;99.90
42833;DHT22;64089;51.478;5.692;2023-05-10T14:45:29;14.50;99.90
42833;DHT22;64089;51.478;5.692;2023-05-10T14:47:54;14.40;99.90
42833;DHT22;64089;51.478;5.692;2023-05-10T14:50:20;14.30;99.90
42833;DHT22;64089;51.478;5.692;2023-05-10T14:52:46;14.30;99.90
42833;DHT22;64089;51.478;5.692;2023-05-10T14:55:11;14.30;99.90
42833;DHT22;64089;51.478;5.692;2023-05-10T14:57:37;14.30;99.90
42833;DHT22;64089;51.478;5.692;2023-05-10T15:00:03;14.30;99.90
42833;DHT22;64089;51.478;5.692;2023-05-10T15:02:30;14.40;99.90
42833;DHT22;64089;51.478;5.692;2023-05-10T15:04:56;14.50;99.90
42833;DHT22;64089;51.478;5.692;2023-05-10T15:07:23;14.50;99.90
42833;DHT22;64089;51.478;5.692;2023-05-10T15:09:49;14.50;99.90
42833;DHT22;64089;51.478;5.692;2023-05-10T15:12:16;14.40;99.90
42833;DHT22;64089;51.478;5.692;2023-05-10T15:14:41;14.40;99.90
42833;DHT22;64089;51.478;5.692;2023-05-10T15:17:07;14.40;99.90
42833;DHT22;64089;51.478;5.692;2023-05-10T15:19:33;14.50;99.90
42833;DHT22;64089;51.478;5.692;2023-05-10T15:21:59;14.50;99.90
42833;DHT22;64089;51.478;5.692;2023-05-10T15:24:25;14.60;99.90
42833;DHT22;64089;51.478;5.692;2023-05-10T15:26:50;14.60;99.90
42833;DHT22;64089;51.478;5.692;2023-05-10T15:29:16;14.60;99.90
42833;DHT22;64089;51.478;5.692;2023-05-10T15:31:49;14.70;99.90
42833;DHT22;64089;51.478;5.692;2023-05-10T15:34:16;14.90;99.90
42833;DHT22;64089;51.478;5.692;2023-05-10T15:36:43;14.90;99.90
42833;DHT22;64089;51.478;5.692;2023-05-10T15:39:09;15.00;99.90
42833;DHT22;64089;51.478;5.692;2023-05-10T15:41:35;15.10;99.90
42833;DHT22;64089;51.478;5.692;2023-05-10T15:44:01;15.00;99.90
42833;DHT22;64089;51.478;5.692;2023-05-10T15:46:28;14.90;99.90
42833;DHT22;64089;51.478;5.692;2023-05-10T15:48:54;14.70;99.90
42833;DHT22;64089;51.478;5.692;2023-05-10T15:51:19;14.60;99.90
42833;DHT22;64089;51.478;5.692;2023-05-10T15:53:46;14.60;99.90
42833;DHT22;64089;51.478;5.692;2023-05-10T15:56:11;14.60;99.90
42833;DHT22;64089;51.478;5.692;2023-05-10T15:58:38;14.60;99.90
42833;DHT22;64089;51.478;5.692;2023-05-10T16:01:04;14.50;99.90
42833;DHT22;64089;51.478;5.692;2023-05-10T16:03:33;14.50;99.90
42833;DHT22;64089;51.478;5.692;2023-05-10T16:05:59;14.60;99.90